Meteo Giornale » Osservazioni meteo Stati Uniti (USA) » Iron Mountain-Kingsford Ford
ore: 07:54 - Osservazioni Meteo Iron Mountain-Kingsford Ford
Lat. 45° 48' N Lon. 88° 6' W Alt. 360 metri s.l.m.
17 °C
Nebbia
Temp. 24 Ore
17 °C
28 °C
Nord
0 Km/h
Dew point 17 °C
Umidità 100 %
Visibilità 2 Km
Il sole sorge alle ore 06:13
Il sole tramonta alle ore 19:30
| Data e Ora | Cielo e Fenomeni | T °C | DP °C | Um. % | Pres. hPa | Vis. km | Vento km/h | |
|---|---|---|---|---|---|---|---|---|
| Oggi h: 07:54 | Nebbia | 17 | 17 | 100 | 1014 | 2 | N 0 | |
| Oggi h: 07:43 | Nebbia | 17 | 17 | 100 | 1014 | 2 | N 0 | |
| Oggi h: 07:10 | Nebbia | 17 | 17 | 100 | 1014 | 2 | N 0 | |
| Oggi h: 07:01 | Nebbia | 17 | 17 | 100 | 1014 | 2 | N 0 | |
| Oggi h: 06:54 | Nebbia | 17 | 17 | 100 | 1013 | 2 | N 0 | |
| Oggi h: 06:46 | Nebbia | 17 | 17 | 100 | 1013 | 2 | N 5.5 | |
| Oggi h: 06:39 | Nebbia | 17 | 17 | 100 | 1013 | 2 | N 5.5 | |
| Oggi h: 06:25 | Nebbia | 17 | 17 | 100 | 1013 | 2 | N 5.5 | |
| Oggi h: 05:54 | Nebbia | 17 | 17 | 100 | 1012 | 2 | N 0 | |
| Oggi h: 04:54 | Nebbia | 17 | 17 | 100 | 1013 | 2 | N 0 | |
| Oggi h: 03:54 | Nebbia | 17 | 17 | 100 | 1012 | 2 | N 5.5 | |
| Oggi h: 03:20 | Nebbia | 18 | 18 | 100 | 1012 | 2 | N 0 | |
| Oggi h: 03:04 | Nebbia | 18 | 18 | 100 | 1012 | 2 | N 0 | |
| Oggi h: 02:54 | Foschia | 17 | 17 | 100 | 1012 | 5 | N 0 | |
| Oggi h: 02:51 | Foschia | 17 | 17 | 100 | 1012 | 2 | N 0 | |
| Oggi h: 02:43 | Foschia | 17 | 17 | 100 | 1012 | 5 | N 5.5 | |
| Oggi h: 02:39 | Foschia | 17 | 17 | 100 | 1012 | 2 | N 5.5 | |
| Oggi h: 02:25 | Nebbia | 17 | 17 | 100 | 1012 | 2 | N 0 | |
| Oggi h: 02:00 | Nebbia | 18 | 18 | 100 | 1012 | 2 | N 0 | |
| Oggi h: 01:54 | Foschia | 18 | 18 | 100 | 1012 | 5 | N 0 | |
| Oggi h: 01:29 | Foschia | 18 | 18 | 100 | 1012 | 2 | N 0 | |
| Oggi h: 00:54 | Nebbia | 19 | 19 | 100 | 1012 | 2 | N 0 | |
| Oggi h: 00:41 | Nebbia | 18 | 18 | 100 | 1012 | 2 | N 0 | |
| Oggi h: 00:34 | Foschia | 19 | 19 | 100 | 1012 | 2 | N 0 | |
| Oggi h: 00:30 | Foschia | 19 | 19 | 100 | 1012 | 5 | N 0 | |
| Oggi h: 00:25 | Foschia | 19 | 19 | 100 | 1012 | 2 | N 0 | |
| Oggi h: 00:12 | Nebbia | 19 | 19 | 100 | 1012 | 2 | N 5.5 | |
| Oggi h: 00:05 | Nebbia | 19 | 19 | 100 | 1012 | 2 | N 0 | |
| Ieri h: 23:54 | Nebbia | 18 | 18 | 100 | 1012 | 2 | N 0 | |
| Ieri h: 23:03 | Nebbia | 20 | 20 | 100 | 1012 | 2 | N 0 | |
| Ieri h: 22:54 | Nebbia | 19 | 19 | 100 | 1012 | 2 | N 0 | |
| Ieri h: 22:50 | Nebbia | 20 | 20 | 100 | 1012 | 2 | N 0 | |
| Ieri h: 22:42 | Nebbia | 19 | 19 | 100 | 1012 | 2 | N 0 | |
| Ieri h: 22:06 | Nebbia | 21 | 21 | 100 | 1012 | 2 | N 0 | |
| Ieri h: 21:54 | Nebbia | 20 | 20 | 100 | 1012 | 2 | N 0 | |
| Ieri h: 21:49 | Foschia | 21 | 21 | 100 | 1012 | 5 | N 0 | |
| Ieri h: 21:37 | Foschia | 22 | 22 | 100 | 1012 | 2 | N 0 | |
| Ieri h: 21:27 | Nebbia | 22 | 22 | 100 | 1012 | 2 | N 0 | |
| Ieri h: 21:20 | Foschia | 21 | 21 | 100 | 1012 | 2 | N 0 | |
| Ieri h: 21:14 | Foschia | 22 | 22 | 100 | 1012 | 5 | N 0 | |
| Ieri h: 20:54 | Foschia | 22 | 22 | 100 | 1012 | 10 | N 5.5 | |
| Ieri h: 19:54 | Poco Nuvoloso | 23 | 22 | 94 | 1011 | 10 | N 0 | |
| Ieri h: 18:54 | Sereno | 26 | 23 | 83 | 1011 | 10 | N 0 | |
| Ieri h: 18:17 | Nuvoloso | 27 | 23 | 78 | 1011 | 10 | SO 11.1 | |
| Ieri h: 18:04 | Molto Nuvoloso | 27 | 23 | 78 | 1011 | 10 | SO 7.4 | |
| Ieri h: 17:54 | Nuvoloso | 27 | 23 | 78 | 1011 | 10 | N 5.5 | |
| Ieri h: 17:08 | Nuvoloso | 28 | 23 | 74 | 1010 | 10 | N 5.5 | |
| Ieri h: 16:54 | Molto Nuvoloso | 27 | 23 | 78 | 1010 | 10 | SO 7.4 | |
| Ieri h: 16:35 | Molto Nuvoloso | 27 | 22 | 74 | 1010 | 10 | O/SO 11.1 | |
| Ieri h: 15:54 | Sereno | 28 | 22 | 69 | 1010 | 10 | S/SO 7.4 | |
| Ieri h: 14:54 | Sereno | 27 | 22 | 74 | 1010 | 10 | N 5.5 | |
| Ieri h: 14:12 | Poco Nuvoloso | 26 | 21 | 73 | 1010 | 10 | O/NO 7.4 | |
| Ieri h: 14:04 | Molto Nuvoloso | 26 | 21 | 73 | 1010 | 10 | O/SO 7.4 | |
| Ieri h: 13:54 | Nuvoloso | 26 | 21 | 73 | 1010 | 10 | O 7.4 | |
| Ieri h: 13:41 | Molto Nuvoloso | 27 | 21 | 69 | 1010 | 10 | N 9.3 | |
| Ieri h: 12:54 | Coperto | 24 | 21 | 83 | 1011 | 10 | S/SO 7.4 | |
| Ieri h: 11:54 | Coperto | 23 | 21 | 88 | 1011 | 10 | S 9.3 | |
| Ieri h: 10:54 | Coperto | 22 | 21 | 94 | 1011 | 10 | S 13 | |
| Ieri h: 10:17 | Coperto | 21 | 21 | 100 | 1011 | 14 | S 9.3 | |
| Ieri h: 09:54 | Foschia | 21 | 21 | 100 | 1011 | 10 | S/SE 11.1 | |
| Ieri h: 09:34 | Foschia | 21 | 21 | 100 | 1011 | 5 | S/SE 11.1 | |
| Ieri h: 09:24 | Foschia | 20 | 20 | 100 | 1011 | 2 | SE 13 | |
| Ieri h: 09:15 | Foschia | 20 | 20 | 100 | 1011 | 5 | SE 13 | |
| Ieri h: 08:54 | Nebbia | 20 | 20 | 100 | 1011 | 2 | S/SE 9.3 | |



